Terminal Aerodrome Forecast
Issued by NWS

Home | Current Version | Previous Version | Text Only | Print | Product List | Glossary On
Versions: 1 2 3 4 5 6 7 8 9 10 11 12 13 14 15 16 17 18 19 20 21 22 23 24 25 26 27 28
000
FTUS46 KSEW 231401 AAA
TAFSEA
TAF AMD
KSEA 231401Z 2314/2418 15006KT P6SM SCT200
     FM231800 18010KT P6SM OVC080
     FM232200 18013KT 5SM -SN OVC035
     FM240100 18012KT P6SM VCSH SCT005 OVC013
     FM240400 18008KT P6SM VCSH BKN016 OVC030
     FM240700 19014G23KT P6SM -SHRA BKN010 OVC020=

USA.gov is the U.S. government's official web portal to all federal, state and local government web resources and services.